sensor_id;sensor_type;location;lat;lon;timestamp;temperature;humidity
26182;DHT22;13927;51.534;11.866;2023-02-11T00:01:08;2.70;99.90
26182;DHT22;13927;51.534;11.866;2023-02-11T00:03:43;2.70;99.90
26182;DHT22;13927;51.534;11.866;2023-02-11T00:06:12;2.80;99.90
26182;DHT22;13927;51.534;11.866;2023-02-11T00:08:41;2.70;99.90
26182;DHT22;13927;51.534;11.866;2023-02-11T00:11:06;2.70;99.90
26182;DHT22;13927;51.534;11.866;2023-02-11T00:13:35;2.70;99.90
26182;DHT22;13927;51.534;11.866;2023-02-11T00:16:06;2.60;99.90
26182;DHT22;13927;51.534;11.866;2023-02-11T00:18:37;2.60;99.90
26182;DHT22;13927;51.534;11.866;2023-02-11T00:21:23;2.60;99.90
26182;DHT22;13927;51.534;11.866;2023-02-11T00:23:49;2.60;99.90
26182;DHT22;13927;51.534;11.866;2023-02-11T00:26:16;2.60;99.90
26182;DHT22;13927;51.534;11.866;2023-02-11T00:28:44;2.60;99.90
26182;DHT22;13927;51.534;11.866;2023-02-11T00:31:11;2.60;99.90
26182;DHT22;13927;51.534;11.866;2023-02-11T00:33:40;2.60;99.90
26182;DHT22;13927;51.534;11.866;2023-02-11T00:36:09;2.60;99.90
26182;DHT22;13927;51.534;11.866;2023-02-11T00:38:36;2.60;99.90
26182;DHT22;13927;51.534;11.866;2023-02-11T00:41:05;2.70;99.90
26182;DHT22;13927;51.534;11.866;2023-02-11T00:43:31;2.70;99.90
26182;DHT22;13927;51.534;11.866;2023-02-11T00:45:58;2.70;99.90
26182;DHT22;13927;51.534;11.866;2023-02-11T00:48:23;2.70;99.90
26182;DHT22;13927;51.534;11.866;2023-02-11T00:50:52;2.80;99.90
26182;DHT22;13927;51.534;11.866;2023-02-11T00:53:18;2.80;99.90
26182;DHT22;13927;51.534;11.866;2023-02-11T00:55:44;2.90;99.90
26182;DHT22;13927;51.534;11.866;2023-02-11T00:58:09;2.90;99.90
26182;DHT22;13927;51.534;11.866;2023-02-11T01:00:35;3.00;99.90
26182;DHT22;13927;51.534;11.866;2023-02-11T01:03:01;3.00;99.90
26182;DHT22;13927;51.534;11.866;2023-02-11T01:05:30;3.10;99.90
26182;DHT22;13927;51.534;11.866;2023-02-11T01:07:55;3.10;99.90
26182;DHT22;13927;51.534;11.866;2023-02-11T01:10:22;3.10;99.90
26182;DHT22;13927;51.534;11.866;2023-02-11T01:12:48;3.20;99.90
26182;DHT22;13927;51.534;11.866;2023-02-11T01:15:15;3.20;99.90
26182;DHT22;13927;51.534;11.866;2023-02-11T01:17:41;3.20;99.90
26182;DHT22;13927;51.534;11.866;2023-02-11T01:20:11;3.10;99.90
26182;DHT22;13927;51.534;11.866;2023-02-11T01:22:39;3.10;99.90
26182;DHT22;13927;51.534;11.866;2023-02-11T01:25:06;3.10;99.90
26182;DHT22;13927;51.534;11.866;2023-02-11T01:27:32;3.10;99.90
26182;DHT22;13927;51.534;11.866;2023-02-11T01:29:58;3.10;99.90
26182;DHT22;13927;51.534;11.866;2023-02-11T01:32:36;3.10;99.90
26182;DHT22;13927;51.534;11.866;2023-02-11T01:35:02;3.10;99.90
26182;DHT22;13927;51.534;11.866;2023-02-11T01:37:40;3.10;99.90
26182;DHT22;13927;51.534;11.866;2023-02-11T01:40:14;3.00;99.90
26182;DHT22;13927;51.534;11.866;2023-02-11T01:42:41;3.10;99.90
26182;DHT22;13927;51.534;11.866;2023-02-11T01:48:26;3.20;99.90
26182;DHT22;13927;51.534;11.866;2023-02-11T01:51:00;3.20;99.90
26182;DHT22;13927;51.534;11.866;2023-02-11T01:53:31;3.30;99.90
26182;DHT22;13927;51.534;11.866;2023-02-11T01:56:17;3.30;99.90
26182;DHT22;13927;51.534;11.866;2023-02-11T01:59:08;3.40;99.90
26182;DHT22;13927;51.534;11.866;2023-02-11T02:01:39;3.40;99.90
26182;DHT22;13927;51.534;11.866;2023-02-11T02:04:07;3.40;99.90
26182;DHT22;13927;51.534;11.866;2023-02-11T02:06:39;3.40;99.90
26182;DHT22;13927;51.534;11.866;2023-02-11T02:09:21;3.40;99.90
26182;DHT22;13927;51.534;11.866;2023-02-11T02:11:49;3.40;99.90
26182;DHT22;13927;51.534;11.866;2023-02-11T02:14:15;3.40;99.90
26182;DHT22;13927;51.534;11.866;2023-02-11T02:16:41;3.40;99.90
26182;DHT22;13927;51.534;11.866;2023-02-11T02:32:14;3.40;99.90
26182;DHT22;13927;51.534;11.866;2023-02-11T02:41:10;3.40;99.90
26182;DHT22;13927;51.534;11.866;2023-02-11T02:43:41;3.40;99.90
26182;DHT22;13927;51.534;11.866;2023-02-11T02:46:15;3.40;99.90
26182;DHT22;13927;51.534;11.866;2023-02-11T02:48:44;3.40;99.90
26182;DHT22;13927;51.534;11.866;2023-02-11T02:51:41;3.40;99.90
26182;DHT22;13927;51.534;11.866;2023-02-11T03:03:16;3.70;99.90
26182;DHT22;13927;51.534;11.866;2023-02-11T03:06:06;3.80;99.90
26182;DHT22;13927;51.534;11.866;2023-02-11T03:08:46;3.80;99.90
26182;DHT22;13927;51.534;11.866;2023-02-11T03:11:17;3.80;99.90
26182;DHT22;13927;51.534;11.866;2023-02-11T03:13:45;3.80;99.90
26182;DHT22;13927;51.534;11.866;2023-02-11T03:16:26;3.80;99.90
26182;DHT22;13927;51.534;11.866;2023-02-11T03:18:58;3.80;99.90
26182;DHT22;13927;51.534;11.866;2023-02-11T03:21:46;3.80;99.90
26182;DHT22;13927;51.534;11.866;2023-02-11T03:24:35;3.80;99.90
26182;DHT22;13927;51.534;11.866;2023-02-11T03:27:36;3.90;99.90
26182;DHT22;13927;51.534;11.866;2023-02-11T03:30:21;3.90;99.90
26182;DHT22;13927;51.534;11.866;2023-02-11T03:33:04;4.00;99.90
26182;DHT22;13927;51.534;11.866;2023-02-11T03:35:42;4.00;99.90
26182;DHT22;13927;51.534;11.866;2023-02-11T03:38:18;4.00;99.90
26182;DHT22;13927;51.534;11.866;2023-02-11T03:40:47;4.00;99.90
26182;DHT22;13927;51.534;11.866;2023-02-11T03:43:17;4.00;99.90
26182;DHT22;13927;51.534;11.866;2023-02-11T03:45:48;4.00;99.90
26182;DHT22;13927;51.534;11.866;2023-02-11T03:48:37;4.00;99.90
26182;DHT22;13927;51.534;11.866;2023-02-11T03:51:08;4.00;99.90
26182;DHT22;13927;51.534;11.866;2023-02-11T03:53:37;4.00;99.90
26182;DHT22;13927;51.534;11.866;2023-02-11T03:56:14;4.00;99.90
26182;DHT22;13927;51.534;11.866;2023-02-11T03:58:57;4.00;99.90
26182;DHT22;13927;51.534;11.866;2023-02-11T04:01:35;3.90;99.90
26182;DHT22;13927;51.534;11.866;2023-02-11T04:04:01;3.90;99.90
26182;DHT22;13927;51.534;11.866;2023-02-11T04:06:26;3.90;99.90
26182;DHT22;13927;51.534;11.866;2023-02-11T04:08:52;3.90;99.90
26182;DHT22;13927;51.534;11.866;2023-02-11T04:11:18;3.90;99.90
26182;DHT22;13927;51.534;11.866;2023-02-11T04:13:43;3.80;99.90
26182;DHT22;13927;51.534;11.866;2023-02-11T04:16:09;3.80;99.90
26182;DHT22;13927;51.534;11.866;2023-02-11T04:18:37;3.80;99.90
26182;DHT22;13927;51.534;11.866;2023-02-11T04:21:09;3.80;99.90
26182;DHT22;13927;51.534;11.866;2023-02-11T04:23:35;3.80;99.90
26182;DHT22;13927;51.534;11.866;2023-02-11T04:26:01;3.80;99.90
26182;DHT22;13927;51.534;11.866;2023-02-11T04:28:27;3.80;99.90
26182;DHT22;13927;51.534;11.866;2023-02-11T04:30:54;3.80;99.90
26182;DHT22;13927;51.534;11.866;2023-02-11T04:33:20;3.80;99.90
26182;DHT22;13927;51.534;11.866;2023-02-11T04:35:52;3.70;99.90
26182;DHT22;13927;51.534;11.866;2023-02-11T04:38:18;3.70;99.90
26182;DHT22;13927;51.534;11.866;2023-02-11T04:40:44;3.60;99.90
26182;DHT22;13927;51.534;11.866;2023-02-11T04:43:12;3.60;99.90
26182;DHT22;13927;51.534;11.866;2023-02-11T04:45:38;3.60;99.90
26182;DHT22;13927;51.534;11.866;2023-02-11T04:48:04;3.60;99.90
26182;DHT22;13927;51.534;11.866;2023-02-11T04:50:32;3.60;99.90
26182;DHT22;13927;51.534;11.866;2023-02-11T04:52:58;3.60;99.90
26182;DHT22;13927;51.534;11.866;2023-02-11T04:55:29;3.60;99.90
26182;DHT22;13927;51.534;11.866;2023-02-11T04:57:58;3.60;99.90
26182;DHT22;13927;51.534;11.866;2023-02-11T05:00:24;3.60;99.90
26182;DHT22;13927;51.534;11.866;2023-02-11T05:02:49;3.60;99.90
26182;DHT22;13927;51.534;11.866;2023-02-11T05:05:18;3.60;99.90
26182;DHT22;13927;51.534;11.866;2023-02-11T05:07:44;3.60;99.90
26182;DHT22;13927;51.534;11.866;2023-02-11T05:10:09;3.70;99.90
26182;DHT22;13927;51.534;11.866;2023-02-11T05:12:35;3.70;99.90
26182;DHT22;13927;51.534;11.866;2023-02-11T05:15:00;3.70;99.90
26182;DHT22;13927;51.534;11.866;2023-02-11T05:17:26;3.80;99.90
26182;DHT22;13927;51.534;11.866;2023-02-11T05:19:55;3.80;99.90
26182;DHT22;13927;51.534;11.866;2023-02-11T05:22:21;3.90;99.90
26182;DHT22;13927;51.534;11.866;2023-02-11T05:24:46;3.90;99.90
26182;DHT22;13927;51.534;11.866;2023-02-11T05:27:12;4.00;99.90
26182;DHT22;13927;51.534;11.866;2023-02-11T05:29:38;4.10;99.90
26182;DHT22;13927;51.534;11.866;2023-02-11T05:32:03;4.20;99.90
26182;DHT22;13927;51.534;11.866;2023-02-11T05:34:29;4.20;99.90
26182;DHT22;13927;51.534;11.866;2023-02-11T05:37:01;4.30;99.90
26182;DHT22;13927;51.534;11.866;2023-02-11T05:39:27;4.30;99.90
26182;DHT22;13927;51.534;11.866;2023-02-11T05:41:52;4.40;99.90
26182;DHT22;13927;51.534;11.866;2023-02-11T05:44:18;4.40;99.90
26182;DHT22;13927;51.534;11.866;2023-02-11T05:46:44;4.40;99.90
26182;DHT22;13927;51.534;11.866;2023-02-11T05:49:09;4.50;99.90
26182;DHT22;13927;51.534;11.866;2023-02-11T05:51:44;4.50;99.90
26182;DHT22;13927;51.534;11.866;2023-02-11T05:54:10;4.50;99.90
26182;DHT22;13927;51.534;11.866;2023-02-11T05:56:36;4.50;99.90
26182;DHT22;13927;51.534;11.866;2023-02-11T05:59:02;4.50;99.90
26182;DHT22;13927;51.534;11.866;2023-02-11T06:01:36;4.50;99.90
26182;DHT22;13927;51.534;11.866;2023-02-11T06:04:05;4.50;99.90
26182;DHT22;13927;51.534;11.866;2023-02-11T06:06:31;4.60;99.90
26182;DHT22;13927;51.534;11.866;2023-02-11T06:09:03;4.60;99.90
26182;DHT22;13927;51.534;11.866;2023-02-11T06:11:28;4.60;99.90
26182;DHT22;13927;51.534;11.866;2023-02-11T06:13:54;4.60;99.90
26182;DHT22;13927;51.534;11.866;2023-02-11T06:16:21;4.60;99.90
26182;DHT22;13927;51.534;11.866;2023-02-11T06:18:47;4.60;99.90
26182;DHT22;13927;51.534;11.866;2023-02-11T06:21:14;4.60;99.90
26182;DHT22;13927;51.534;11.866;2023-02-11T06:23:39;4.60;99.90
26182;DHT22;13927;51.534;11.866;2023-02-11T06:26:07;4.60;99.90
26182;DHT22;13927;51.534;11.866;2023-02-11T06:28:33;4.70;99.90
26182;DHT22;13927;51.534;11.866;2023-02-11T06:31:08;4.60;99.90
26182;DHT22;13927;51.534;11.866;2023-02-11T06:33:34;4.70;99.90
26182;DHT22;13927;51.534;11.866;2023-02-11T06:36:00;4.70;99.90
26182;DHT22;13927;51.534;11.866;2023-02-11T06:38:27;4.70;99.90
26182;DHT22;13927;51.534;11.866;2023-02-11T06:40:54;4.70;99.90
26182;DHT22;13927;51.534;11.866;2023-02-11T06:43:19;4.70;99.90
26182;DHT22;13927;51.534;11.866;2023-02-11T06:45:54;4.70;99.90
26182;DHT22;13927;51.534;11.866;2023-02-11T06:48:22;4.70;99.90
26182;DHT22;13927;51.534;11.866;2023-02-11T06:50:48;4.70;99.90
26182;DHT22;13927;51.534;11.866;2023-02-11T06:53:14;4.70;99.90
26182;DHT22;13927;51.534;11.866;2023-02-11T06:55:39;4.70;99.90
26182;DHT22;13927;51.534;11.866;2023-02-11T06:58:05;4.70;99.90
26182;DHT22;13927;51.534;11.866;2023-02-11T07:00:31;4.70;99.90
26182;DHT22;13927;51.534;11.866;2023-02-11T07:02:56;4.70;99.90
26182;DHT22;13927;51.534;11.866;2023-02-11T07:05:22;4.70;99.90
26182;DHT22;13927;51.534;11.866;2023-02-11T07:07:48;4.70;99.90
26182;DHT22;13927;51.534;11.866;2023-02-11T07:10:15;4.70;99.90
26182;DHT22;13927;51.534;11.866;2023-02-11T07:12:40;4.70;99.90
26182;DHT22;13927;51.534;11.866;2023-02-11T07:15:06;4.80;99.90
26182;DHT22;13927;51.534;11.866;2023-02-11T07:17:34;4.80;99.90
26182;DHT22;13927;51.534;11.866;2023-02-11T07:20:00;4.70;99.90
26182;DHT22;13927;51.534;11.866;2023-02-11T07:22:25;4.80;99.90
26182;DHT22;13927;51.534;11.866;2023-02-11T07:25:03;4.70;99.90
26182;DHT22;13927;51.534;11.866;2023-02-11T07:27:29;4.70;99.90
26182;DHT22;13927;51.534;11.866;2023-02-11T07:29:58;4.70;99.90
26182;DHT22;13927;51.534;11.866;2023-02-11T07:32:24;4.80;99.90
26182;DHT22;13927;51.534;11.866;2023-02-11T07:35:23;4.80;99.90
26182;DHT22;13927;51.534;11.866;2023-02-11T07:37:49;4.90;99.90
26182;DHT22;13927;51.534;11.866;2023-02-11T07:40:15;4.90;99.90
26182;DHT22;13927;51.534;11.866;2023-02-11T07:42:41;5.00;99.90
26182;DHT22;13927;51.534;11.866;2023-02-11T07:45:07;5.00;99.90
26182;DHT22;13927;51.534;11.866;2023-02-11T07:47:34;5.00;99.90
26182;DHT22;13927;51.534;11.866;2023-02-11T07:50:00;5.00;99.90
26182;DHT22;13927;51.534;11.866;2023-02-11T07:52:29;5.00;99.90
26182;DHT22;13927;51.534;11.866;2023-02-11T07:54:55;5.10;99.90
26182;DHT22;13927;51.534;11.866;2023-02-11T07:57:21;5.10;99.90
26182;DHT22;13927;51.534;11.866;2023-02-11T07:59:47;5.00;99.90
26182;DHT22;13927;51.534;11.866;2023-02-11T08:02:12;5.10;99.90
26182;DHT22;13927;51.534;11.866;2023-02-11T08:04:38;5.20;99.90
26182;DHT22;13927;51.534;11.866;2023-02-11T08:07:04;5.20;99.90
26182;DHT22;13927;51.534;11.866;2023-02-11T08:09:31;5.20;99.90
26182;DHT22;13927;51.534;11.866;2023-02-11T08:11:57;5.20;99.90
26182;DHT22;13927;51.534;11.866;2023-02-11T08:14:23;5.30;99.90
26182;DHT22;13927;51.534;11.866;2023-02-11T08:16:49;5.30;99.90
26182;DHT22;13927;51.534;11.866;2023-02-11T08:19:18;5.30;99.90
26182;DHT22;13927;51.534;11.866;2023-02-11T08:21:44;5.30;99.90
26182;DHT22;13927;51.534;11.866;2023-02-11T08:24:12;5.40;99.90
26182;DHT22;13927;51.534;11.866;2023-02-11T08:26:40;5.30;99.90
26182;DHT22;13927;51.534;11.866;2023-02-11T08:29:08;5.40;99.90
26182;DHT22;13927;51.534;11.866;2023-02-11T08:31:39;5.40;99.90
26182;DHT22;13927;51.534;11.866;2023-02-11T08:34:06;5.40;99.90
26182;DHT22;13927;51.534;11.866;2023-02-11T08:36:34;5.40;99.90
26182;DHT22;13927;51.534;11.866;2023-02-11T08:39:04;5.40;99.90
26182;DHT22;13927;51.534;11.866;2023-02-11T08:41:33;5.40;99.90
26182;DHT22;13927;51.534;11.866;2023-02-11T08:44:01;5.40;99.90
26182;DHT22;13927;51.534;11.866;2023-02-11T08:46:27;5.40;99.90
26182;DHT22;13927;51.534;11.866;2023-02-11T08:48:53;5.40;99.90
26182;DHT22;13927;51.534;11.866;2023-02-11T08:51:23;5.40;99.90
26182;DHT22;13927;51.534;11.866;2023-02-11T08:53:54;5.30;99.90
26182;DHT22;13927;51.534;11.866;2023-02-11T08:56:23;5.40;99.90
26182;DHT22;13927;51.534;11.866;2023-02-11T08:58:49;5.40;99.90
26182;DHT22;13927;51.534;11.866;2023-02-11T09:01:21;5.40;99.90
26182;DHT22;13927;51.534;11.866;2023-02-11T09:03:52;5.40;99.90
26182;DHT22;13927;51.534;11.866;2023-02-11T09:06:18;5.50;99.90
26182;DHT22;13927;51.534;11.866;2023-02-11T09:08:47;5.50;99.90
26182;DHT22;13927;51.534;11.866;2023-02-11T09:11:17;5.50;99.90
26182;DHT22;13927;51.534;11.866;2023-02-11T09:13:44;5.60;99.90
26182;DHT22;13927;51.534;11.866;2023-02-11T09:16:21;5.60;99.90
26182;DHT22;13927;51.534;11.866;2023-02-11T09:18:48;5.60;99.90
26182;DHT22;13927;51.534;11.866;2023-02-11T09:21:16;5.60;99.90
26182;DHT22;13927;51.534;11.866;2023-02-11T09:23:43;5.50;99.90
26182;DHT22;13927;51.534;11.866;2023-02-11T09:26:15;5.50;99.90
26182;DHT22;13927;51.534;11.866;2023-02-11T09:28:42;5.50;99.90
26182;DHT22;13927;51.534;11.866;2023-02-11T09:31:12;5.50;99.90
26182;DHT22;13927;51.534;11.866;2023-02-11T09:33:45;5.60;99.90
26182;DHT22;13927;51.534;11.866;2023-02-11T09:36:14;5.70;99.90
26182;DHT22;13927;51.534;11.866;2023-02-11T09:38:43;5.70;99.90
26182;DHT22;13927;51.534;11.866;2023-02-11T09:43:49;5.60;99.90
26182;DHT22;13927;51.534;11.866;2023-02-11T09:46:22;5.60;99.90
26182;DHT22;13927;51.534;11.866;2023-02-11T09:48:51;5.60;99.90
26182;DHT22;13927;51.534;11.866;2023-02-11T09:51:42;5.60;99.90
26182;DHT22;13927;51.534;11.866;2023-02-11T09:54:30;5.60;99.90
26182;DHT22;13927;51.534;11.866;2023-02-11T09:57:02;5.70;99.90
26182;DHT22;13927;51.534;11.866;2023-02-11T09:59:31;5.80;99.90
26182;DHT22;13927;51.534;11.866;2023-02-11T10:02:05;5.80;99.90
26182;DHT22;13927;51.534;11.866;2023-02-11T10:05:13;5.70;99.90
26182;DHT22;13927;51.534;11.866;2023-02-11T10:08:12;5.80;99.90
26182;DHT22;13927;51.534;11.866;2023-02-11T10:10:58;5.90;99.90
26182;DHT22;13927;51.534;11.866;2023-02-11T10:14:00;5.90;99.90
26182;DHT22;13927;51.534;11.866;2023-02-11T10:19:52;6.10;99.90
26182;DHT22;13927;51.534;11.866;2023-02-11T10:22:26;6.10;99.90
26182;DHT22;13927;51.534;11.866;2023-02-11T10:24:58;6.20;99.90
26182;DHT22;13927;51.534;11.866;2023-02-11T10:27:34;6.30;99.90
26182;DHT22;13927;51.534;11.866;2023-02-11T10:30:21;6.30;99.90
26182;DHT22;13927;51.534;11.866;2023-02-11T10:33:03;6.40;99.90
26182;DHT22;13927;51.534;11.866;2023-02-11T10:35:37;6.50;99.90
26182;DHT22;13927;51.534;11.866;2023-02-11T10:38:03;6.40;99.90
26182;DHT22;13927;51.534;11.866;2023-02-11T10:40:30;6.50;99.90
26182;DHT22;13927;51.534;11.866;2023-02-11T10:43:04;6.50;99.90
26182;DHT22;13927;51.534;11.866;2023-02-11T10:45:47;6.60;99.90
26182;DHT22;13927;51.534;11.866;2023-02-11T10:51:26;6.60;99.90
26182;DHT22;13927;51.534;11.866;2023-02-11T10:56:32;6.50;99.90
26182;DHT22;13927;51.534;11.866;2023-02-11T10:59:04;6.50;99.90
26182;DHT22;13927;51.534;11.866;2023-02-11T11:01:39;6.50;99.90
26182;DHT22;13927;51.534;11.866;2023-02-11T11:04:34;6.50;99.90
26182;DHT22;13927;51.534;11.866;2023-02-11T11:07:27;6.50;99.90
26182;DHT22;13927;51.534;11.866;2023-02-11T11:13:27;6.50;99.90
26182;DHT22;13927;51.534;11.866;2023-02-11T11:16:15;6.50;99.90
26182;DHT22;13927;51.534;11.866;2023-02-11T11:18:47;6.50;99.90
26182;DHT22;13927;51.534;11.866;2023-02-11T11:21:49;6.60;99.90
26182;DHT22;13927;51.534;11.866;2023-02-11T11:24:28;6.60;99.90
26182;DHT22;13927;51.534;11.866;2023-02-11T11:27:01;6.70;99.90
26182;DHT22;13927;51.534;11.866;2023-02-11T11:29:47;6.70;99.90
26182;DHT22;13927;51.534;11.866;2023-02-11T11:32:21;6.80;99.90
26182;DHT22;13927;51.534;11.866;2023-02-11T11:34:51;6.80;99.90
26182;DHT22;13927;51.534;11.866;2023-02-11T11:37:29;6.80;99.90
26182;DHT22;13927;51.534;11.866;2023-02-11T11:40:20;6.80;99.90
26182;DHT22;13927;51.534;11.866;2023-02-11T11:45:37;6.90;99.90
26182;DHT22;13927;51.534;11.866;2023-02-11T11:48:12;7.00;99.90
26182;DHT22;13927;51.534;11.866;2023-02-11T11:50:51;7.10;99.90
26182;DHT22;13927;51.534;11.866;2023-02-11T11:56:17;7.20;99.90
26182;DHT22;13927;51.534;11.866;2023-02-11T11:58:44;7.30;99.90
26182;DHT22;13927;51.534;11.866;2023-02-11T12:07:23;7.40;99.90
26182;DHT22;13927;51.534;11.866;2023-02-11T12:10:09;7.40;99.90
26182;DHT22;13927;51.534;11.866;2023-02-11T12:13:08;7.40;99.90
26182;DHT22;13927;51.534;11.866;2023-02-11T12:16:27;7.50;99.90
26182;DHT22;13927;51.534;11.866;2023-02-11T12:22:31;7.60;99.90
26182;DHT22;13927;51.534;11.866;2023-02-11T12:25:25;7.60;99.90
26182;DHT22;13927;51.534;11.866;2023-02-11T12:28:05;7.60;99.90
26182;DHT22;13927;51.534;11.866;2023-02-11T12:31:05;7.70;99.90
26182;DHT22;13927;51.534;11.866;2023-02-11T12:36:28;7.70;99.90
26182;DHT22;13927;51.534;11.866;2023-02-11T12:39:24;7.70;99.90
26182;DHT22;13927;51.534;11.866;2023-02-11T12:42:10;7.70;99.90
26182;DHT22;13927;51.534;11.866;2023-02-11T12:50:23;7.60;99.90
26182;DHT22;13927;51.534;11.866;2023-02-11T12:56:11;7.60;99.90
26182;DHT22;13927;51.534;11.866;2023-02-11T12:58:42;7.70;99.90
26182;DHT22;13927;51.534;11.866;2023-02-11T13:01:19;7.60;99.90
26182;DHT22;13927;51.534;11.866;2023-02-11T13:03:58;7.70;99.90
26182;DHT22;13927;51.534;11.866;2023-02-11T13:06:35;7.70;99.90
26182;DHT22;13927;51.534;11.866;2023-02-11T13:09:06;7.70;99.90
26182;DHT22;13927;51.534;11.866;2023-02-11T13:11:45;7.70;99.90
26182;DHT22;13927;51.534;11.866;2023-02-11T13:14:36;7.70;99.90
26182;DHT22;13927;51.534;11.866;2023-02-11T13:17:14;7.60;99.90
26182;DHT22;13927;51.534;11.866;2023-02-11T13:19:50;7.60;99.90
26182;DHT22;13927;51.534;11.866;2023-02-11T13:22:43;7.60;99.90
26182;DHT22;13927;51.534;11.866;2023-02-11T13:25:30;7.60;99.90
26182;DHT22;13927;51.534;11.866;2023-02-11T13:28:09;7.60;99.90
26182;DHT22;13927;51.534;11.866;2023-02-11T13:30:42;7.60;99.90
26182;DHT22;13927;51.534;11.866;2023-02-11T13:33:16;7.60;99.90
26182;DHT22;13927;51.534;11.866;2023-02-11T13:36:09;7.60;99.90
26182;DHT22;13927;51.534;11.866;2023-02-11T13:38:34;7.70;99.90
26182;DHT22;13927;51.534;11.866;2023-02-11T13:41:04;7.70;99.90
26182;DHT22;13927;51.534;11.866;2023-02-11T13:43:34;7.70;99.90
26182;DHT22;13927;51.534;11.866;2023-02-11T13:46:11;7.80;99.90
26182;DHT22;13927;51.534;11.866;2023-02-11T13:48:52;7.80;99.90
26182;DHT22;13927;51.534;11.866;2023-02-11T13:51:34;7.90;99.90
26182;DHT22;13927;51.534;11.866;2023-02-11T13:54:02;7.80;99.90
26182;DHT22;13927;51.534;11.866;2023-02-11T13:56:37;7.80;99.90
26182;DHT22;13927;51.534;11.866;2023-02-11T14:02:20;7.70;99.90
26182;DHT22;13927;51.534;11.866;2023-02-11T14:14:13;7.70;99.90
26182;DHT22;13927;51.534;11.866;2023-02-11T14:19:42;7.70;99.90
26182;DHT22;13927;51.534;11.866;2023-02-11T14:25:02;7.70;99.90
26182;DHT22;13927;51.534;11.866;2023-02-11T14:27:46;7.70;99.90
26182;DHT22;13927;51.534;11.866;2023-02-11T14:30:31;7.70;99.90
26182;DHT22;13927;51.534;11.866;2023-02-11T14:44:17;7.70;99.90
26182;DHT22;13927;51.534;11.866;2023-02-11T14:46:49;7.70;99.90
26182;DHT22;13927;51.534;11.866;2023-02-11T14:49:30;7.70;99.90
26182;DHT22;13927;51.534;11.866;2023-02-11T14:52:25;7.70;99.90
26182;DHT22;13927;51.534;11.866;2023-02-11T14:55:02;7.60;99.90
26182;DHT22;13927;51.534;11.866;2023-02-11T14:57:31;7.60;99.90
26182;DHT22;13927;51.534;11.866;2023-02-11T15:00:00;7.70;99.90
26182;DHT22;13927;51.534;11.866;2023-02-11T15:02:35;7.70;99.90
26182;DHT22;13927;51.534;11.866;2023-02-11T15:05:25;7.70;99.90
26182;DHT22;13927;51.534;11.866;2023-02-11T15:08:01;7.70;99.90
26182;DHT22;13927;51.534;11.866;2023-02-11T15:10:36;7.70;99.90
26182;DHT22;13927;51.534;11.866;2023-02-11T15:13:06;7.80;99.90
26182;DHT22;13927;51.534;11.866;2023-02-11T15:15:33;7.80;99.90
26182;DHT22;13927;51.534;11.866;2023-02-11T15:18:02;7.80;99.90
26182;DHT22;13927;51.534;11.866;2023-02-11T15:20:30;7.80;99.90
26182;DHT22;13927;51.534;11.866;2023-02-11T15:23:00;7.80;99.90
26182;DHT22;13927;51.534;11.866;2023-02-11T15:25:27;7.80;99.90
26182;DHT22;13927;51.534;11.866;2023-02-11T15:27:55;7.80;99.90
26182;DHT22;13927;51.534;11.866;2023-02-11T15:32:51;7.80;99.90
26182;DHT22;13927;51.534;11.866;2023-02-11T15:35:31;7.90;99.90
26182;DHT22;13927;51.534;11.866;2023-02-11T15:38:01;7.90;99.90
26182;DHT22;13927;51.534;11.866;2023-02-11T15:40:30;7.90;99.90
26182;DHT22;13927;51.534;11.866;2023-02-11T15:42:58;7.80;99.90
26182;DHT22;13927;51.534;11.866;2023-02-11T15:48:35;7.70;99.90
26182;DHT22;13927;51.534;11.866;2023-02-11T15:51:26;7.60;99.90
26182;DHT22;13927;51.534;11.866;2023-02-11T15:53:59;7.60;99.90
26182;DHT22;13927;51.534;11.866;2023-02-11T15:56:30;7.50;99.90
26182;DHT22;13927;51.534;11.866;2023-02-11T15:59:18;7.50;99.90
26182;DHT22;13927;51.534;11.866;2023-02-11T16:01:50;7.50;99.90
26182;DHT22;13927;51.534;11.866;2023-02-11T16:04:22;7.40;99.90
26182;DHT22;13927;51.534;11.866;2023-02-11T16:06:49;7.40;99.90
26182;DHT22;13927;51.534;11.866;2023-02-11T16:14:34;7.20;99.90
26182;DHT22;13927;51.534;11.866;2023-02-11T16:17:10;7.20;99.90
26182;DHT22;13927;51.534;11.866;2023-02-11T16:19:48;7.20;99.90
26182;DHT22;13927;51.534;11.866;2023-02-11T16:22:21;7.20;99.90
26182;DHT22;13927;51.534;11.866;2023-02-11T16:24:52;7.10;99.90
26182;DHT22;13927;51.534;11.866;2023-02-11T16:29:56;7.10;99.90
26182;DHT22;13927;51.534;11.866;2023-02-11T16:32:24;7.10;99.90
26182;DHT22;13927;51.534;11.866;2023-02-11T16:34:53;7.00;99.90
26182;DHT22;13927;51.534;11.866;2023-02-11T16:37:22;7.00;99.90
26182;DHT22;13927;51.534;11.866;2023-02-11T16:39:49;7.00;99.90
26182;DHT22;13927;51.534;11.866;2023-02-11T16:42:18;7.00;99.90
26182;DHT22;13927;51.534;11.866;2023-02-11T16:44:44;7.00;99.90
26182;DHT22;13927;51.534;11.866;2023-02-11T16:47:26;7.00;99.90
26182;DHT22;13927;51.534;11.866;2023-02-11T16:49:53;6.90;99.90
26182;DHT22;13927;51.534;11.866;2023-02-11T16:52:20;6.90;99.90
26182;DHT22;13927;51.534;11.866;2023-02-11T16:54:49;6.90;99.90
26182;DHT22;13927;51.534;11.866;2023-02-11T16:57:18;6.90;99.90
26182;DHT22;13927;51.534;11.866;2023-02-11T16:59:45;6.90;99.90
26182;DHT22;13927;51.534;11.866;2023-02-11T17:02:24;6.90;99.90
26182;DHT22;13927;51.534;11.866;2023-02-11T17:04:58;6.90;99.90
26182;DHT22;13927;51.534;11.866;2023-02-11T17:07:26;7.00;99.90
26182;DHT22;13927;51.534;11.866;2023-02-11T17:09:52;7.00;99.90
26182;DHT22;13927;51.534;11.866;2023-02-11T17:12:19;7.00;99.90
26182;DHT22;13927;51.534;11.866;2023-02-11T17:14:45;6.90;99.90
26182;DHT22;13927;51.534;11.866;2023-02-11T17:17:11;6.90;99.90
26182;DHT22;13927;51.534;11.866;2023-02-11T17:19:37;6.90;99.90
26182;DHT22;13927;51.534;11.866;2023-02-11T17:22:04;6.90;99.90
26182;DHT22;13927;51.534;11.866;2023-02-11T17:24:30;7.00;99.90
26182;DHT22;13927;51.534;11.866;2023-02-11T17:26:56;7.00;99.90
26182;DHT22;13927;51.534;11.866;2023-02-11T17:29:23;7.00;99.90
26182;DHT22;13927;51.534;11.866;2023-02-11T17:31:50;6.90;99.90
26182;DHT22;13927;51.534;11.866;2023-02-11T17:34:17;7.00;99.90
26182;DHT22;13927;51.534;11.866;2023-02-11T17:36:44;7.00;99.90
26182;DHT22;13927;51.534;11.866;2023-02-11T17:39:10;7.00;99.90
26182;DHT22;13927;51.534;11.866;2023-02-11T17:41:37;7.00;99.90
26182;DHT22;13927;51.534;11.866;2023-02-11T17:44:04;7.00;99.90
26182;DHT22;13927;51.534;11.866;2023-02-11T17:46:31;7.00;99.90
26182;DHT22;13927;51.534;11.866;2023-02-11T17:48:58;7.00;99.90
26182;DHT22;13927;51.534;11.866;2023-02-11T17:51:27;7.00;99.90
26182;DHT22;13927;51.534;11.866;2023-02-11T17:53:57;6.90;99.90
26182;DHT22;13927;51.534;11.866;2023-02-11T17:56:24;7.00;99.90